Terminal Aerodrome Forecast
Issued by NWS

Home | Current Version | Previous Version | Text Only | Print | Product List | Glossary On
Versions: 1 2 3 4 5 6 7 8 9 10 11 12 13 14 15 16 17
000
FTUS42 KGSP 060852 AAA
TAFHKY
TAF AMD
KHKY 060852Z 0609/0706 07006KT 3SM RA BR OVC005
     FM061800 04005KT 3SM BR OVC010
     FM062300 31003KT 3SM BR BKN015
     FM070200 30003KT 2SM BR BKN050=

USA.gov is the U.S. government's official web portal to all federal, state and local government web resources and services.